Time;durP1;ratioP1;P1;durP2;ratioP2;P2;SDS_P1;SDS_P2;PMS_P1;PMS_P2;Temp;Humidity;BMP_temperature;BMP_pressure;BME280_temperature;BME280_humidity;BME280_pressure;Samples;Min_cycle;Max_cycle;Signal;HPM_P1;HPM_P2
2021/11/29 00:00:01;;;;;;;;;;;2.00;99.90;;;;;;5115036;28;20366;-49
2021/11/29 00:02:30;;;;;;;;;;;2.00;99.90;;;;;;5113284;28;19924;-49
2021/11/29 00:04:57;;;;;;;;;;;2.00;99.90;;;;;;5115589;28;19923;-48
2021/11/29 00:07:24;;;;;;;;;;;2.10;99.90;;;;;;5107168;28;19978;-48
2021/11/29 00:09:51;;;;;;;;;;;2.20;99.90;;;;;;5095107;28;19924;-48
2021/11/29 00:12:19;;;;;;;;;;;2.20;99.90;;;;;;5112770;28;19969;-49
2021/11/29 00:14:46;;;;;;;;;;;2.20;99.90;;;;;;5113529;28;19985;-48
2021/11/29 00:17:12;;;;;;;;;;;2.10;99.90;;;;;;5114940;28;19969;-48
2021/11/29 00:19:39;;;;;;;;;;;2.00;99.90;;;;;;5106167;28;19924;-47
2021/11/29 00:22:06;;;;;;;;;;;2.00;99.90;;;;;;5106815;28;20435;-49
2021/11/29 00:24:33;;;;;;;;;;;2.00;99.90;;;;;;5114854;28;20447;-49
2021/11/29 00:26:59;;;;;;;;;;;1.90;99.90;;;;;;5114851;28;19923;-48
2021/11/29 00:29:27;;;;;;;;;;;1.80;99.90;;;;;;5106500;28;19924;-49
2021/11/29 00:31:54;;;;;;;;;;;1.90;99.90;;;;;;5099590;28;20397;-48
2021/11/29 00:34:21;;;;;;;;;;;2.00;99.90;;;;;;5114904;28;20670;-49
2021/11/29 00:36:48;;;;;;;;;;;1.90;99.90;;;;;;5115009;28;20011;-49
2021/11/29 00:39:17;;;;;;;;;;;2.00;99.90;;;;;;5114923;28;19977;-48
2021/11/29 00:41:43;;;;;;;;;;;1.90;99.90;;;;;;5097367;28;19928;-47
2021/11/29 00:44:11;;;;;;;;;;;1.80;99.90;;;;;;5094754;28;19969;-47
2021/11/29 00:46:39;;;;;;;;;;;1.80;99.90;;;;;;5108626;28;19982;-48
2021/11/29 00:49:05;;;;;;;;;;;1.70;99.90;;;;;;5114642;28;19969;-48
2021/11/29 00:51:32;;;;;;;;;;;1.90;99.90;;;;;;5114046;28;19924;-48
2021/11/29 00:53:59;;;;;;;;;;;1.90;99.90;;;;;;5114273;28;19923;-48
2021/11/29 00:56:26;;;;;;;;;;;1.90;99.90;;;;;;5114172;28;20381;-48
2021/11/29 00:58:53;;;;;;;;;;;1.90;99.90;;;;;;5107627;28;20020;-48
2021/11/29 01:01:19;;;;;;;;;;;1.70;99.90;;;;;;5093887;28;19924;-47
2021/11/29 01:03:47;;;;;;;;;;;1.80;99.90;;;;;;5114339;28;19924;-47
2021/11/29 01:06:14;;;;;;;;;;;1.90;99.90;;;;;;5112801;28;19980;-48
2021/11/29 01:08:41;;;;;;;;;;;1.90;99.90;;;;;;5114664;28;19924;-48
2021/11/29 01:11:10;;;;;;;;;;;1.90;99.90;;;;;;5113089;28;20458;-48
2021/11/29 01:13:37;;;;;;;;;;;1.90;99.90;;;;;;5111339;28;20359;-48
2021/11/29 01:16:04;;;;;;;;;;;2.00;99.90;;;;;;5114068;28;19953;-48
2021/11/29 01:18:31;;;;;;;;;;;2.10;99.90;;;;;;5113738;28;19944;-49
2021/11/29 01:20:59;;;;;;;;;;;2.00;99.90;;;;;;5113606;28;19924;-49
2021/11/29 01:23:26;;;;;;;;;;;2.00;99.90;;;;;;5113110;28;20424;-48
2021/11/29 01:25:54;;;;;;;;;;;2.00;99.90;;;;;;5114023;28;20097;-48
2021/11/29 01:28:21;;;;;;;;;;;2.10;99.90;;;;;;5113819;28;19963;-48
2021/11/29 01:30:48;;;;;;;;;;;2.20;99.90;;;;;;5096562;28;19954;-48
2021/11/29 01:33:15;;;;;;;;;;;2.20;99.90;;;;;;5113009;28;20385;-48
2021/11/29 01:35:42;;;;;;;;;;;2.20;99.90;;;;;;5113677;28;19924;-49
2021/11/29 01:38:10;;;;;;;;;;;2.40;99.90;;;;;;5113277;28;19969;-48
2021/11/29 01:40:37;;;;;;;;;;;2.30;99.90;;;;;;5113650;28;19924;-48
2021/11/29 01:43:06;;;;;;;;;;;2.40;99.90;;;;;;5105044;28;20049;-48
2021/11/29 01:45:33;;;;;;;;;;;2.30;99.90;;;;;;5110291;28;20454;-48
2021/11/29 01:48:00;;;;;;;;;;;2.20;99.90;;;;;;5113704;28;19924;-48
2021/11/29 01:50:27;;;;;;;;;;;2.20;99.90;;;;;;5112878;28;19923;-48
2021/11/29 01:52:54;;;;;;;;;;;2.30;99.90;;;;;;5113192;28;19927;-48
2021/11/29 01:55:22;;;;;;;;;;;2.30;99.90;;;;;;5113469;28;19984;-47
2021/11/29 01:57:49;;;;;;;;;;;2.40;99.90;;;;;;5113250;28;19939;-48
2021/11/29 02:00:17;;;;;;;;;;;2.40;99.90;;;;;;5112552;28;19923;-47
2021/11/29 02:02:47;;;;;;;;;;;2.40;99.90;;;;;;5103042;28;19981;-48
2021/11/29 02:05:14;;;;;;;;;;;2.50;99.90;;;;;;5102809;28;19932;-49
2021/11/29 02:07:41;;;;;;;;;;;2.50;99.90;;;;;;5112355;28;19924;-48
2021/11/29 02:10:08;;;;;;;;;;;2.50;99.90;;;;;;5112612;28;19928;-49
2021/11/29 02:12:36;;;;;;;;;;;2.40;99.90;;;;;;5103977;28;19945;-47
2021/11/29 02:15:04;;;;;;;;;;;2.50;99.90;;;;;;5112696;28;19984;-47
2021/11/29 02:17:31;;;;;;;;;;;2.50;99.90;;;;;;5112936;28;20382;-49
2021/11/29 02:20:00;;;;;;;;;;;2.40;99.90;;;;;;5112804;28;19924;-48
2021/11/29 02:22:28;;;;;;;;;;;2.40;99.90;;;;;;5112163;28;20438;-48
2021/11/29 02:24:55;;;;;;;;;;;2.30;99.90;;;;;;5113028;28;19943;-48
2021/11/29 02:27:22;;;;;;;;;;;2.40;99.90;;;;;;5103060;28;19953;-49
2021/11/29 02:29:51;;;;;;;;;;;2.40;99.90;;;;;;5112823;28;19969;-49
2021/11/29 02:32:18;;;;;;;;;;;2.50;99.90;;;;;;5111923;28;20434;-48
2021/11/29 02:34:44;;;;;;;;;;;2.40;99.90;;;;;;5105034;28;19981;-48
2021/11/29 02:37:11;;;;;;;;;;;2.30;99.90;;;;;;5092285;28;19954;-48
2021/11/29 02:39:41;;;;;;;;;;;2.20;99.90;;;;;;5092564;28;19977;-47
2021/11/29 02:42:09;;;;;;;;;;;2.20;99.90;;;;;;5107652;28;20420;-47
2021/11/29 02:44:36;;;;;;;;;;;2.30;99.90;;;;;;5112824;28;19931;-48
2021/11/29 02:47:03;;;;;;;;;;;2.30;99.90;;;;;;5106301;28;19972;-48
2021/11/29 02:49:29;;;;;;;;;;;2.30;99.90;;;;;;5112038;28;19984;-49
2021/11/29 02:51:57;;;;;;;;;;;2.20;99.90;;;;;;5111815;28;19932;-48
2021/11/29 02:54:25;;;;;;;;;;;2.30;99.90;;;;;;5094411;28;19997;-49
2021/11/29 02:56:55;;;;;;;;;;;2.30;99.90;;;;;;5093321;28;19931;-47
2021/11/29 02:59:22;;;;;;;;;;;2.30;99.90;;;;;;5094119;28;19976;-48
2021/11/29 03:01:50;;;;;;;;;;;2.30;99.90;;;;;;5098845;28;20413;-48
2021/11/29 03:04:18;;;;;;;;;;;2.30;99.90;;;;;;5112570;28;20577;-48
2021/11/29 03:06:45;;;;;;;;;;;2.10;99.90;;;;;;5111985;28;19936;-49
2021/11/29 03:09:12;;;;;;;;;;;1.80;99.90;;;;;;5112364;28;19985;-47
2021/11/29 03:11:39;;;;;;;;;;;1.90;99.90;;;;;;5113888;28;19924;-48
2021/11/29 03:14:08;;;;;;;;;;;1.90;99.90;;;;;;5114429;28;19962;-49
2021/11/29 03:16:35;;;;;;;;;;;2.10;99.90;;;;;;5116072;28;20454;-48
2021/11/29 03:19:02;;;;;;;;;;;2.10;99.90;;;;;;5104293;28;19993;-48
2021/11/29 03:21:29;;;;;;;;;;;2.20;99.90;;;;;;5102324;28;20294;-48
2021/11/29 03:23:56;;;;;;;;;;;2.30;99.90;;;;;;5116038;28;20347;-49
2021/11/29 03:26:24;;;;;;;;;;;2.30;99.90;;;;;;5101270;28;19970;-47
2021/11/29 03:28:53;;;;;;;;;;;2.20;99.90;;;;;;5095794;28;19924;-48
2021/11/29 03:31:21;;;;;;;;;;;2.30;99.90;;;;;;5095398;28;19931;-48
2021/11/29 03:33:48;;;;;;;;;;;2.50;99.90;;;;;;5113292;28;19985;-48
2021/11/29 03:36:15;;;;;;;;;;;2.50;99.90;;;;;;5116172;28;19968;-48
2021/11/29 03:38:42;;;;;;;;;;;2.30;99.90;;;;;;5114992;28;19924;-48
2021/11/29 03:41:09;;;;;;;;;;;2.00;99.90;;;;;;5113670;28;19924;-47
2021/11/29 03:43:38;;;;;;;;;;;2.00;99.90;;;;;;5115341;28;19927;-48
2021/11/29 03:46:05;;;;;;;;;;;1.90;99.90;;;;;;5115817;28;20355;-48
2021/11/29 03:48:33;;;;;;;;;;;1.80;99.90;;;;;;5095861;28;19924;-47
2021/11/29 03:51:00;;;;;;;;;;;1.60;99.90;;;;;;5095181;28;20057;-48
2021/11/29 03:53:27;;;;;;;;;;;1.70;99.90;;;;;;5107210;28;20443;-47
2021/11/29 03:55:54;;;;;;;;;;;1.70;99.90;;;;;;5098855;28;19939;-48
2021/11/29 03:58:20;;;;;;;;;;;1.70;99.90;;;;;;5111869;28;20385;-50
2021/11/29 04:00:47;;;;;;;;;;;1.90;99.90;;;;;;5106225;28;20371;-48
2021/11/29 04:03:14;;;;;;;;;;;2.00;99.90;;;;;;5106127;28;20033;-48
2021/11/29 04:05:42;;;;;;;;;;;2.00;99.90;;;;;;5115620;28;19960;-48
2021/11/29 04:08:09;;;;;;;;;;;2.10;99.90;;;;;;5113676;28;19924;-48
2021/11/29 04:10:36;;;;;;;;;;;2.20;99.90;;;;;;5113912;28;19980;-48
2021/11/29 04:13:03;;;;;;;;;;;2.30;99.90;;;;;;5115158;28;19924;-47
2021/11/29 04:15:30;;;;;;;;;;;2.20;99.90;;;;;;5113992;28;19977;-47
2021/11/29 04:17:57;;;;;;;;;;;2.10;99.90;;;;;;5103225;28;20336;-48
2021/11/29 04:20:23;;;;;;;;;;;2.00;99.90;;;;;;5094610;28;19970;-47
2021/11/29 04:22:52;;;;;;;;;;;1.60;99.90;;;;;;5108300;28;19935;-47
2021/11/29 04:25:19;;;;;;;;;;;1.50;99.90;;;;;;5115150;28;19923;-48
2021/11/29 04:27:47;;;;;;;;;;;1.30;99.90;;;;;;5115037;28;19972;-48
2021/11/29 04:30:18;;;;;;;;;;;1.10;99.90;;;;;;5114963;28;19945;-47
2021/11/29 04:32:47;;;;;;;;;;;1.10;99.90;;;;;;5114804;28;19931;-48
2021/11/29 04:35:14;;;;;;;;;;;1.10;99.90;;;;;;5114914;28;19969;-48
2021/11/29 04:37:41;;;;;;;;;;;1.00;99.90;;;;;;5111173;28;19969;-46
2021/11/29 04:40:10;;;;;;;;;;;1.00;99.90;;;;;;5114326;28;19923;-47
2021/11/29 04:42:37;;;;;;;;;;;1.00;99.90;;;;;;5114144;28;19924;-48
2021/11/29 04:45:04;;;;;;;;;;;1.00;99.90;;;;;;5114610;28;19924;-47
2021/11/29 04:47:31;;;;;;;;;;;0.90;99.90;;;;;;5114958;28;19973;-48
2021/11/29 04:49:58;;;;;;;;;;;0.90;99.90;;;;;;5114413;28;19924;-48
2021/11/29 04:52:25;;;;;;;;;;;0.90;99.90;;;;;;5137198;22;19969;-53
2021/11/29 04:54:52;;;;;;;;;;;0.90;99.90;;;;;;5114773;28;19932;-53
2021/11/29 04:57:20;;;;;;;;;;;0.90;99.90;;;;;;5114477;28;20386;-52
2021/11/29 04:59:47;;;;;;;;;;;0.90;99.90;;;;;;5112458;28;19932;-53
2021/11/29 05:02:14;;;;;;;;;;;0.90;99.90;;;;;;5108718;28;19927;-52
2021/11/29 05:04:46;;;;;;;;;;;1.00;99.90;;;;;;5114183;28;19928;-54
2021/11/29 05:07:13;;;;;;;;;;;1.00;99.90;;;;;;5114215;28;19953;-52
2021/11/29 05:09:42;;;;;;;;;;;1.00;99.90;;;;;;5114128;28;20492;-53
2021/11/29 05:12:09;;;;;;;;;;;1.00;99.90;;;;;;5113454;28;19959;-53
2021/11/29 05:14:38;;;;;;;;;;;1.00;99.90;;;;;;5095426;28;19977;-53
2021/11/29 05:17:04;;;;;;;;;;;1.00;99.90;;;;;;5112163;28;20343;-54
2021/11/29 05:19:31;;;;;;;;;;;1.10;99.90;;;;;;5114190;28;19927;-53
2021/11/29 05:21:58;;;;;;;;;;;1.00;99.90;;;;;;5112982;28;19928;-53
2021/11/29 05:24:25;;;;;;;;;;;1.00;99.90;;;;;;5113745;28;19928;-54
2021/11/29 05:26:52;;;;;;;;;;;0.90;99.90;;;;;;5114044;28;19977;-53
2021/11/29 05:29:18;;;;;;;;;;;1.00;99.90;;;;;;5113933;28;19928;-52
2021/11/29 05:31:46;;;;;;;;;;;0.90;99.90;;;;;;5112730;28;19953;-53
2021/11/29 05:34:14;;;;;;;;;;;0.90;99.90;;;;;;5100963;28;19927;-53
2021/11/29 05:36:40;;;;;;;;;;;0.80;99.90;;;;;;5113456;28;19966;-53
2021/11/29 05:39:07;;;;;;;;;;;0.90;99.90;;;;;;5113611;28;19927;-53
2021/11/29 05:41:34;;;;;;;;;;;0.90;99.90;;;;;;5106625;28;19935;-52
2021/11/29 05:44:01;;;;;;;;;;;0.90;99.90;;;;;;5093578;28;19924;-52
2021/11/29 05:46:27;;;;;;;;;;;1.00;99.90;;;;;;5106051;28;19924;-54
2021/11/29 05:48:57;;;;;;;;;;;1.00;99.90;;;;;;5113957;28;19924;-52
2021/11/29 05:51:23;;;;;;;;;;;1.00;99.90;;;;;;5112442;28;20006;-53
2021/11/29 05:53:51;;;;;;;;;;;1.00;99.90;;;;;;5113172;28;20427;-53
2021/11/29 05:56:18;;;;;;;;;;;1.10;99.90;;;;;;5113738;28;19953;-53
2021/11/29 05:58:45;;;;;;;;;;;1.20;99.90;;;;;;5113448;28;19923;-53
2021/11/29 06:01:12;;;;;;;;;;;1.30;99.90;;;;;;5112447;28;20389;-53
2021/11/29 06:03:39;;;;;;;;;;;1.40;99.90;;;;;;5112866;28;19928;-52
2021/11/29 06:06:07;;;;;;;;;;;1.40;99.90;;;;;;5113080;28;19932;-54
2021/11/29 06:08:34;;;;;;;;;;;1.40;99.90;;;;;;5112990;28;19924;-53
2021/11/29 06:11:00;;;;;;;;;;;1.30;99.90;;;;;;5111253;28;19927;-53
2021/11/29 06:13:28;;;;;;;;;;;1.20;99.90;;;;;;5093543;28;19928;-52
2021/11/29 06:15:55;;;;;;;;;;;1.20;99.90;;;;;;5113005;28;20430;-52
2021/11/29 06:18:22;;;;;;;;;;;1.30;99.90;;;;;;5113001;28;19985;-54
2021/11/29 06:20:49;;;;;;;;;;;1.40;99.90;;;;;;5113052;28;19980;-52
2021/11/29 06:23:17;;;;;;;;;;;1.30;99.90;;;;;;5112417;28;20457;-54
2021/11/29 06:25:44;;;;;;;;;;;1.40;99.90;;;;;;5113297;28;19923;-53
2021/11/29 06:28:10;;;;;;;;;;;1.50;99.90;;;;;;5113068;28;19924;-53
2021/11/29 06:30:37;;;;;;;;;;;1.80;99.90;;;;;;5112747;28;20278;-53
2021/11/29 06:33:04;;;;;;;;;;;1.80;99.90;;;;;;5112128;28;20356;-54
2021/11/29 06:35:31;;;;;;;;;;;1.80;99.90;;;;;;5112822;28;19973;-53
2021/11/29 06:37:59;;;;;;;;;;;1.80;99.90;;;;;;5107207;28;19954;-55
2021/11/29 06:40:28;;;;;;;;;;;1.90;99.90;;;;;;5104348;27;19924;-52
2021/11/29 06:42:55;;;;;;;;;;;1.80;99.90;;;;;;5107236;28;19924;-54
2021/11/29 06:45:22;;;;;;;;;;;1.80;99.90;;;;;;5107575;28;19928;-54
2021/11/29 06:47:49;;;;;;;;;;;1.50;99.90;;;;;;5092925;28;19985;-53
2021/11/29 06:50:16;;;;;;;;;;;1.40;99.90;;;;;;5108358;28;19923;-54
2021/11/29 06:52:43;;;;;;;;;;;1.40;99.90;;;;;;5113830;28;19927;-53
2021/11/29 06:55:14;;;;;;;;;;;1.40;99.90;;;;;;5114141;28;19931;-52
2021/11/29 06:57:42;;;;;;;;;;;1.60;99.90;;;;;;5130126;28;19924;-54
2021/11/29 07:00:11;;;;;;;;;;;1.80;99.90;;;;;;5123177;28;19928;-55
2021/11/29 07:02:39;;;;;;;;;;;1.80;99.90;;;;;;5122928;28;19944;-53
2021/11/29 07:05:07;;;;;;;;;;;1.70;99.90;;;;;;5119086;28;19923;-54
2021/11/29 07:07:34;;;;;;;;;;;1.60;99.90;;;;;;5133655;28;19928;-55
2021/11/29 07:10:01;;;;;;;;;;;1.50;99.90;;;;;;5131819;28;19924;-54
2021/11/29 07:12:27;;;;;;;;;;;1.50;99.90;;;;;;5115843;28;19968;-52
2021/11/29 07:14:57;;;;;;;;;;;1.60;99.90;;;;;;5109760;28;19993;-52
2021/11/29 07:17:23;;;;;;;;;;;1.70;99.90;;;;;;5112516;28;19924;-53
2021/11/29 07:19:53;;;;;;;;;;;1.80;99.90;;;;;;5112694;28;19928;-52
2021/11/29 07:22:20;;;;;;;;;;;1.70;99.90;;;;;;5112426;28;19927;-52
2021/11/29 07:24:48;;;;;;;;;;;1.80;99.90;;;;;;5107973;28;19932;-54
2021/11/29 07:27:15;;;;;;;;;;;2.00;99.90;;;;;;5108454;28;19969;-53
2021/11/29 07:29:42;;;;;;;;;;;1.90;99.90;;;;;;5112307;28;19973;-53
2021/11/29 07:32:10;;;;;;;;;;;2.00;99.90;;;;;;5095294;28;19930;-52
2021/11/29 07:34:37;;;;;;;;;;;1.80;99.90;;;;;;5099768;28;20385;-52
2021/11/29 07:37:04;;;;;;;;;;;2.00;99.90;;;;;;5094026;28;19924;-53
2021/11/29 07:39:30;;;;;;;;;;;2.00;99.90;;;;;;5105385;28;19927;-52
2021/11/29 07:41:59;;;;;;;;;;;1.80;99.90;;;;;;5111795;28;19953;-54
2021/11/29 07:44:26;;;;;;;;;;;1.60;99.90;;;;;;5093991;28;19928;-53
2021/11/29 07:46:52;;;;;;;;;;;1.60;99.90;;;;;;5091971;28;19977;-54
2021/11/29 07:49:20;;;;;;;;;;;1.70;99.90;;;;;;5092431;28;19924;-52
2021/11/29 07:51:47;;;;;;;;;;;1.80;99.90;;;;;;5091399;28;19924;-52
2021/11/29 07:54:14;;;;;;;;;;;1.80;99.90;;;;;;5091558;28;19978;-53
2021/11/29 07:56:41;;;;;;;;;;;1.80;99.90;;;;;;5092153;28;19969;-53
2021/11/29 07:59:07;;;;;;;;;;;1.80;99.90;;;;;;5095550;28;19924;-55
2021/11/29 08:01:34;;;;;;;;;;;1.70;99.90;;;;;;5095697;28;19977;-54
2021/11/29 08:04:01;;;;;;;;;;;1.70;99.90;;;;;;5095303;28;19931;-53
2021/11/29 08:06:29;;;;;;;;;;;1.60;99.90;;;;;;5113808;28;19969;-53
2021/11/29 08:08:56;;;;;;;;;;;1.60;99.90;;;;;;5115536;28;19936;-54
2021/11/29 08:11:23;;;;;;;;;;;1.60;99.90;;;;;;5115474;28;19923;-52
2021/11/29 08:13:50;;;;;;;;;;;1.60;99.90;;;;;;5115315;28;19927;-53
2021/11/29 08:16:17;;;;;;;;;;;1.70;99.90;;;;;;5111676;28;19924;-53
2021/11/29 08:18:44;;;;;;;;;;;1.80;99.90;;;;;;5103765;28;19932;-52
2021/11/29 08:21:11;;;;;;;;;;;1.70;99.90;;;;;;5094665;28;19924;-54
2021/11/29 08:23:39;;;;;;;;;;;1.70;99.90;;;;;;5115418;28;19976;-53
2021/11/29 08:26:09;;;;;;;;;;;1.70;99.90;;;;;;5114500;28;19976;-53
2021/11/29 08:28:36;;;;;;;;;;;1.70;99.90;;;;;;5114115;28;20019;-53
2021/11/29 08:31:02;;;;;;;;;;;1.60;99.90;;;;;;5112512;28;19923;-54
2021/11/29 08:33:29;;;;;;;;;;;1.50;99.90;;;;;;5102751;28;19924;-53
2021/11/29 08:35:56;;;;;;;;;;;1.60;99.90;;;;;;5109724;28;19927;-55
2021/11/29 08:38:23;;;;;;;;;;;1.50;99.90;;;;;;5113739;28;19969;-53
2021/11/29 08:40:51;;;;;;;;;;;1.50;99.90;;;;;;5094400;28;19924;-53
2021/11/29 08:43:19;;;;;;;;;;;1.50;99.90;;;;;;5097579;28;19928;-54
2021/11/29 08:45:48;;;;;;;;;;;1.60;99.90;;;;;;5099024;28;20370;-53
2021/11/29 08:48:14;;;;;;;;;;;1.70;99.90;;;;;;5104360;28;20035;-53
2021/11/29 08:50:43;;;;;;;;;;;1.70;99.90;;;;;;5104193;28;19923;-53
2021/11/29 08:53:12;;;;;;;;;;;1.60;99.90;;;;;;5100951;27;20025;-54
2021/11/29 08:55:39;;;;;;;;;;;1.80;99.90;;;;;;5110768;27;19935;-54
2021/11/29 08:58:08;;;;;;;;;;;1.80;99.90;;;;;;5114321;27;20417;-53
2021/11/29 09:00:35;;;;;;;;;;;1.70;99.90;;;;;;5117336;27;19931;-53
2021/11/29 09:03:06;;;;;;;;;;;1.80;99.90;;;;;;5107085;28;19939;-53
2021/11/29 09:05:33;;;;;;;;;;;1.80;99.90;;;;;;5114471;28;19924;-53
2021/11/29 09:08:00;;;;;;;;;;;1.80;99.90;;;;;;5113544;28;19924;-53
2021/11/29 09:10:27;;;;;;;;;;;1.80;99.90;;;;;;5098267;28;19924;-52
2021/11/29 09:12:54;;;;;;;;;;;1.90;99.90;;;;;;5094795;28;19924;-52
2021/11/29 09:15:22;;;;;;;;;;;1.90;99.90;;;;;;5103980;27;20317;-53
2021/11/29 09:17:51;;;;;;;;;;;1.90;99.90;;;;;;5111584;27;19931;-56
2021/11/29 09:20:19;;;;;;;;;;;1.90;99.90;;;;;;5110779;27;19928;-56
2021/11/29 09:22:46;;;;;;;;;;;1.80;99.90;;;;;;5112553;27;20343;-54
2021/11/29 09:25:13;;;;;;;;;;;1.90;99.90;;;;;;5111978;27;19989;-53
2021/11/29 09:27:43;;;;;;;;;;;2.10;99.90;;;;;;5111415;27;19932;-55
2021/11/29 09:30:11;;;;;;;;;;;2.00;99.90;;;;;;5111320;27;20409;-54
2021/11/29 09:32:40;;;;;;;;;;;2.00;99.90;;;;;;5105036;27;20310;-53
2021/11/29 09:35:08;;;;;;;;;;;2.00;99.90;;;;;;5108134;27;19980;-55
2021/11/29 09:37:36;;;;;;;;;;;2.10;99.90;;;;;;5107179;27;20619;-53
2021/11/29 09:40:03;;;;;;;;;;;2.10;99.90;;;;;;5106639;27;19934;-53
2021/11/29 09:42:30;;;;;;;;;;;2.00;99.90;;;;;;5110591;27;19931;-55
2021/11/29 09:44:57;;;;;;;;;;;2.30;99.90;;;;;;5115411;27;19928;-53
2021/11/29 09:47:24;;;;;;;;;;;2.10;99.90;;;;;;5105161;27;19931;-53
2021/11/29 09:49:55;;;;;;;;;;;1.90;99.90;;;;;;5104303;27;19927;-53
2021/11/29 09:52:22;;;;;;;;;;;1.80;99.90;;;;;;5107354;27;19924;-53
2021/11/29 09:54:49;;;;;;;;;;;1.90;99.90;;;;;;5111720;27;20378;-53
2021/11/29 09:57:16;;;;;;;;;;;1.90;99.90;;;;;;5112878;27;20364;-55
2021/11/29 09:59:43;;;;;;;;;;;2.10;99.90;;;;;;5111929;27;19931;-53
2021/11/29 10:02:13;;;;;;;;;;;2.30;99.90;;;;;;5104834;27;19932;-54
2021/11/29 10:04:40;;;;;;;;;;;2.30;99.90;;;;;;5110300;27;19924;-53
2021/11/29 10:07:08;;;;;;;;;;;2.30;99.90;;;;;;5112625;27;19928;-53
2021/11/29 10:09:35;;;;;;;;;;;2.30;99.90;;;;;;5112735;27;19923;-53
2021/11/29 10:12:24;;;;;;;;;;;2.10;99.90;;;;;;5106854;28;20251;-54
2021/11/29 10:15:06;;;;;;;;;;;1.80;99.90;;;;;;5113488;27;19927;-54
2021/11/29 10:17:32;;;;;;;;;;;1.60;99.90;;;;;;5108863;27;20337;-56
2021/11/29 10:19:59;;;;;;;;;;;1.70;99.90;;;;;;5110967;27;19924;-53
2021/11/29 10:22:28;;;;;;;;;;;1.70;99.90;;;;;;5108928;27;19924;-54
2021/11/29 10:24:56;;;;;;;;;;;1.60;99.90;;;;;;5117054;27;19923;-52
2021/11/29 10:27:39;;;;;;;;;;;1.80;99.90;;;;;;5105707;27;19938;-54
2021/11/29 10:30:07;;;;;;;;;;;1.80;99.90;;;;;;5112423;27;19939;-52
2021/11/29 10:32:35;;;;;;;;;;;1.70;99.90;;;;;;5105359;27;19928;-55
2021/11/29 10:35:01;;;;;;;;;;;1.70;99.90;;;;;;5103529;27;19928;-53
2021/11/29 10:37:32;;;;;;;;;;;1.90;99.90;;;;;;5100460;28;19924;-54
2021/11/29 10:39:59;;;;;;;;;;;2.00;99.90;;;;;;5109732;27;19924;-54
2021/11/29 10:42:28;;;;;;;;;;;2.00;99.90;;;;;;5104489;28;19935;-53
2021/11/29 10:44:55;;;;;;;;;;;2.00;99.90;;;;;;5119392;27;19950;-55
2021/11/29 10:47:22;;;;;;;;;;;1.90;99.90;;;;;;5105079;28;19932;-54
2021/11/29 10:49:52;;;;;;;;;;;1.80;99.90;;;;;;5113916;27;19949;-54
2021/11/29 10:52:19;;;;;;;;;;;1.80;99.90;;;;;;5134143;22;19928;-49
2021/11/29 10:54:47;;;;;;;;;;;1.80;99.90;;;;;;5108192;28;20388;-48
2021/11/29 10:57:15;;;;;;;;;;;1.50;99.90;;;;;;5109503;28;19972;-47
2021/11/29 10:59:44;;;;;;;;;;;1.50;99.90;;;;;;5105558;28;19923;-47
2021/11/29 11:02:11;;;;;;;;;;;1.60;99.90;;;;;;5123781;27;19927;-49
2021/11/29 11:04:39;;;;;;;;;;;1.80;99.90;;;;;;5128016;27;19928;-49
2021/11/29 11:07:08;;;;;;;;;;;2.10;99.90;;;;;;5129684;27;19924;-49
2021/11/29 11:09:35;;;;;;;;;;;2.50;99.90;;;;;;5136279;27;19927;-47
2021/11/29 11:12:05;;;;;;;;;;;2.80;99.90;;;;;;5122596;27;20405;-47
2021/11/29 11:14:32;;;;;;;;;;;3.20;99.90;;;;;;5131296;27;19923;-49
2021/11/29 11:17:00;;;;;;;;;;;3.50;99.90;;;;;;5131512;27;19923;-48
2021/11/29 11:19:28;;;;;;;;;;;3.70;99.90;;;;;;5125234;27;19927;-48
2021/11/29 11:21:56;;;;;;;;;;;3.80;99.90;;;;;;5128864;27;20342;-49
2021/11/29 11:24:25;;;;;;;;;;;3.90;99.90;;;;;;5125424;27;19939;-48
2021/11/29 11:26:55;;;;;;;;;;;3.70;99.90;;;;;;5127052;27;19924;-49
2021/11/29 11:29:49;;;;;;;;;;;3.40;99.90;;;;;;5126648;27;19928;-47
2021/11/29 11:32:20;;;;;;;;;;;3.20;99.90;;;;;;5097653;27;19958;-47
2021/11/29 11:34:48;;;;;;;;;;;3.00;99.90;;;;;;5138913;27;19930;-48
2021/11/29 11:37:16;;;;;;;;;;;2.80;99.90;;;;;;5133061;27;19934;-49
2021/11/29 11:39:43;;;;;;;;;;;2.90;99.90;;;;;;5123899;27;19934;-47
2021/11/29 11:42:10;;;;;;;;;;;3.00;99.90;;;;;;5133251;27;20293;-48
2021/11/29 11:44:37;;;;;;;;;;;3.20;99.90;;;;;;5140830;27;20308;-49
2021/11/29 11:47:05;;;;;;;;;;;3.20;99.90;;;;;;5135343;27;19936;-47
2021/11/29 11:49:34;;;;;;;;;;;3.30;99.90;;;;;;5128801;27;19922;-49
2021/11/29 11:52:01;;;;;;;;;;;3.30;99.90;;;;;;5134001;27;19923;-47
2021/11/29 11:54:27;;;;;;;;;;;3.40;99.90;;;;;;5133336;27;19924;-48
2021/11/29 11:56:54;;;;;;;;;;;3.70;99.90;;;;;;5134306;27;19942;-47
2021/11/29 11:59:25;;;;;;;;;;;4.00;99.90;;;;;;5133897;27;19924;-47
2021/11/29 12:01:52;;;;;;;;;;;4.40;99.90;;;;;;5135106;27;19976;-48
2021/11/29 12:04:19;;;;;;;;;;;4.60;99.90;;;;;;5137458;27;20507;-47
2021/11/29 12:06:49;;;;;;;;;;;4.70;99.90;;;;;;5133243;27;19927;-48
2021/11/29 12:09:16;;;;;;;;;;;5.10;99.90;;;;;;5132389;27;19961;-48
2021/11/29 12:11:45;;;;;;;;;;;5.20;99.90;;;;;;5131348;27;19923;-48
2021/11/29 12:14:13;;;;;;;;;;;5.10;99.90;;;;;;5127936;27;20373;-48
2021/11/29 12:16:41;;;;;;;;;;;5.20;99.90;;;;;;5135590;27;19924;-47
2021/11/29 12:19:13;;;;;;;;;;;5.20;99.90;;;;;;5129085;27;20412;-48
2021/11/29 12:21:40;;;;;;;;;;;5.30;99.90;;;;;;5128267;27;19984;-48
2021/11/29 12:24:11;;;;;;;;;;;5.50;99.90;;;;;;5128145;27;19977;-48
2021/11/29 12:26:58;;;;;;;;;;;5.60;99.90;;;;;;5123391;27;20027;-48
2021/11/29 12:29:43;;;;;;;;;;;5.80;99.90;;;;;;5124796;27;19928;-48
2021/11/29 12:32:10;;;;;;;;;;;5.80;99.90;;;;;;5120046;27;20386;-49
2021/11/29 12:34:58;;;;;;;;;;;5.70;99.90;;;;;;5122490;27;19923;-48
2021/11/29 12:37:26;;;;;;;;;;;5.70;99.90;;;;;;5134077;27;19923;-48
2021/11/29 12:39:59;;;;;;;;;;;5.60;99.90;;;;;;5136954;27;19927;-47
2021/11/29 12:42:51;;;;;;;;;;;5.50;99.90;;;;;;5128856;27;19927;-48
2021/11/29 12:45:20;;;;;;;;;;;5.30;99.90;;;;;;5127249;27;20294;-48
2021/11/29 12:47:51;;;;;;;;;;;5.20;99.90;;;;;;5125354;27;19924;-48
2021/11/29 12:50:37;;;;;;;;;;;5.20;99.90;;;;;;5127045;27;20450;-48
2021/11/29 12:53:15;;;;;;;;;;;4.80;99.90;;;;;;5122630;27;20374;-48
2021/11/29 12:55:44;;;;;;;;;;;4.80;99.90;;;;;;5143131;27;19923;-48
2021/11/29 12:58:18;;;;;;;;;;;4.70;99.90;;;;;;5117933;27;19927;-48
2021/11/29 13:00:46;;;;;;;;;;;4.80;99.90;;;;;;5123925;27;20010;-48
2021/11/29 13:03:14;;;;;;;;;;;4.70;99.90;;;;;;5122965;27;19923;-48
2021/11/29 13:05:41;;;;;;;;;;;4.70;99.90;;;;;;5125336;27;19923;-47
2021/11/29 13:08:12;;;;;;;;;;;4.80;99.90;;;;;;5141469;27;19928;-47
2021/11/29 13:10:51;;;;;;;;;;;4.70;99.90;;;;;;5121455;27;19980;-48
2021/11/29 13:13:29;;;;;;;;;;;4.50;99.90;;;;;;5120627;27;19923;-48
2021/11/29 13:15:58;;;;;;;;;;;4.60;99.90;;;;;;5122871;27;19934;-48
2021/11/29 13:18:44;;;;;;;;;;;4.40;99.90;;;;;;5129113;27;19976;-48
2021/11/29 13:21:11;;;;;;;;;;;4.50;99.90;;;;;;5118260;27;19924;-48
2021/11/29 13:23:44;;;;;;;;;;;4.30;99.90;;;;;;5130398;27;20339;-48
2021/11/29 13:26:12;;;;;;;;;;;4.40;99.90;;;;;;5121326;27;20018;-48
2021/11/29 13:28:39;;;;;;;;;;;4.40;99.90;;;;;;5131830;27;19931;-48
2021/11/29 13:31:06;;;;;;;;;;;4.40;99.90;;;;;;5120035;27;19959;-48
2021/11/29 13:33:35;;;;;;;;;;;4.50;99.90;;;;;;5126601;27;19927;-49
2021/11/29 13:36:02;;;;;;;;;;;4.60;99.90;;;;;;5123244;27;20407;-48
2021/11/29 13:38:29;;;;;;;;;;;4.70;99.90;;;;;;5132043;27;19971;-47
2021/11/29 13:40:56;;;;;;;;;;;4.70;99.90;;;;;;5131756;27;20479;-48
2021/11/29 13:43:28;;;;;;;;;;;4.20;99.90;;;;;;5132904;27;20388;-47
2021/11/29 13:45:55;;;;;;;;;;;4.10;99.90;;;;;;5143266;27;19930;-47
2021/11/29 13:48:24;;;;;;;;;;;3.70;99.90;;;;;;5120895;27;19928;-48
2021/11/29 13:50:53;;;;;;;;;;;3.60;99.90;;;;;;5119302;27;19923;-47
2021/11/29 13:53:27;;;;;;;;;;;3.40;99.90;;;;;;5130622;27;20452;-48
2021/11/29 13:55:57;;;;;;;;;;;3.40;99.90;;;;;;5138112;27;20359;-48
2021/11/29 13:58:28;;;;;;;;;;;3.10;99.90;;;;;;5133588;27;19927;-48
2021/11/29 14:00:57;;;;;;;;;;;2.80;99.90;;;;;;5133573;27;19969;-47
2021/11/29 14:03:25;;;;;;;;;;;2.70;99.90;;;;;;5133718;27;19924;-47
2021/11/29 14:05:53;;;;;;;;;;;2.80;99.90;;;;;;5133373;27;20352;-47
2021/11/29 14:08:21;;;;;;;;;;;2.90;99.90;;;;;;5153815;27;19927;-47
2021/11/29 14:10:53;;;;;;;;;;;3.00;99.90;;;;;;5154040;27;20396;-47
2021/11/29 14:13:23;;;;;;;;;;;3.00;99.90;;;;;;5154371;27;19945;-48
2021/11/29 14:15:53;;;;;;;;;;;3.00;99.90;;;;;;5153945;27;19931;-48
2021/11/29 14:18:24;;;;;;;;;;;2.80;99.90;;;;;;5154163;27;19941;-47
2021/11/29 14:20:51;;;;;;;;;;;2.70;99.90;;;;;;5145111;27;19928;-47
2021/11/29 14:23:18;;;;;;;;;;;2.60;99.90;;;;;;5133064;27;19928;-47
2021/11/29 14:25:46;;;;;;;;;;;2.60;99.90;;;;;;5133228;27;20023;-47
2021/11/29 14:28:13;;;;;;;;;;;2.70;99.90;;;;;;5133445;27;19984;-46
2021/11/29 14:30:40;;;;;;;;;;;2.70;99.90;;;;;;5132918;27;20628;-47
2021/11/29 14:33:08;;;;;;;;;;;2.70;99.90;;;;;;5132673;27;19923;-47
2021/11/29 14:35:35;;;;;;;;;;;2.60;99.90;;;;;;5132844;27;19927;-46